createdAt,value
2023-02-09T00:01:44.838Z,74.74
2023-02-09T00:04:28.816Z,75.29
2023-02-09T00:07:12.633Z,74.78
2023-02-09T00:09:56.422Z,74.71
2023-02-09T00:12:57.861Z,75.34
2023-02-09T00:15:49.844Z,75.09
2023-02-09T00:18:34.569Z,75.69
2023-02-09T00:21:18.412Z,75.39
2023-02-09T00:24:02.387Z,75.80
2023-02-09T00:26:46.990Z,75.93
2023-02-09T00:29:32.199Z,75.22
2023-02-09T00:32:17.331Z,76.00
2023-02-09T00:35:01.743Z,76.30
2023-02-09T00:37:47.473Z,76.29
2023-02-09T00:40:31.248Z,75.92
2023-02-09T00:43:16.305Z,76.33
2023-02-09T00:46:00.500Z,76.09
2023-02-09T00:48:46.135Z,76.19
2023-02-09T00:51:30.188Z,75.92
2023-02-09T00:54:14.527Z,76.38
2023-02-09T00:57:05.250Z,76.46
2023-02-09T00:59:50.670Z,76.65
2023-02-09T01:02:34.627Z,76.41
2023-02-09T01:05:20.236Z,76.10
2023-02-09T01:08:04.218Z,75.84
2023-02-09T01:10:47.996Z,76.18
2023-02-09T01:13:31.800Z,76.82
2023-02-09T01:16:18.361Z,76.83
2023-02-09T01:19:03.052Z,76.63
2023-02-09T01:21:49.364Z,76.93
2023-02-09T01:24:33.159Z,76.83
2023-02-09T01:27:17.130Z,77.16
2023-02-09T01:30:01.551Z,76.90
2023-02-09T01:32:47.930Z,77.09
2023-02-09T01:35:32.363Z,77.53
2023-02-09T01:38:17.829Z,78.00
2023-02-09T01:41:01.758Z,77.31
2023-02-09T01:43:51.688Z,77.87
2023-02-09T01:46:38.456Z,78.52
2023-02-09T01:49:26.351Z,78.51
2023-02-09T01:52:13.155Z,78.44
2023-02-09T01:55:03.364Z,78.78
2023-02-09T01:57:52.284Z,79.01
2023-02-09T02:00:36.941Z,79.57
2023-02-09T02:03:23.708Z,79.46
2023-02-09T02:06:11.896Z,79.53
2023-02-09T02:09:00.160Z,79.20
2023-02-09T02:11:48.491Z,79.92
2023-02-09T02:14:34.571Z,80.04
2023-02-09T02:17:29.134Z,79.68
2023-02-09T02:21:04.859Z,79.89
2023-02-09T02:24:03.135Z,79.77
2023-02-09T02:27:03.488Z,80.41
2023-02-09T02:30:27.240Z,80.72
2023-02-09T02:33:25.396Z,80.08
2023-02-09T02:36:17.999Z,80.61
2023-02-09T02:39:08.247Z,80.59
2023-02-09T02:42:16.328Z,80.39
2023-02-09T02:45:09.696Z,80.56
2023-02-09T02:48:01.725Z,80.81
2023-02-09T02:50:54.557Z,80.41
2023-02-09T02:53:41.954Z,80.66
2023-02-09T02:56:30.574Z,80.93
2023-02-09T02:59:18.942Z,80.79
2023-02-09T03:02:08.544Z,80.96
2023-02-09T03:04:57.339Z,80.67
2023-02-09T03:07:43.322Z,80.54
2023-02-09T03:10:30.376Z,80.89
2023-02-09T03:13:26.554Z,80.86
2023-02-09T03:16:21.875Z,80.55
2023-02-09T03:19:15.484Z,80.85
2023-02-09T03:22:05.473Z,80.96
2023-02-09T03:24:55.677Z,81.74
2023-02-09T03:27:44.646Z,81.43
2023-02-09T03:30:28.634Z,81.27
2023-02-09T03:33:21.099Z,81.10
2023-02-09T03:36:09.824Z,80.89
2023-02-09T03:38:53.572Z,81.42
2023-02-09T03:41:39.163Z,82.12
2023-02-09T03:44:28.771Z,81.94
2023-02-09T03:47:12.574Z,81.77
2023-02-09T03:49:57.065Z,81.81
2023-02-09T03:52:40.789Z,81.14
2023-02-09T03:55:24.654Z,82.47
2023-02-09T03:58:09.854Z,81.97
2023-02-09T04:00:53.742Z,82.42
2023-02-09T04:03:38.045Z,82.39
2023-02-09T04:06:21.974Z,82.92
2023-02-09T04:09:06.877Z,82.30
2023-02-09T04:11:50.796Z,82.68
2023-02-09T04:14:36.023Z,83.02
2023-02-09T04:17:19.719Z,83.55
2023-02-09T04:20:03.654Z,83.08
2023-02-09T04:22:47.476Z,83.02
2023-02-09T04:25:31.266Z,83.81
2023-02-09T04:28:15.034Z,83.19
2023-02-09T04:31:00.304Z,83.57
2023-02-09T04:33:44.228Z,83.75
2023-02-09T04:36:28.109Z,82.89
2023-02-09T04:39:12.013Z,83.94
2023-02-09T04:41:55.850Z,84.39
2023-02-09T04:44:39.721Z,84.68
2023-02-09T04:47:25.136Z,85.36
2023-02-09T04:50:09.416Z,85.89
2023-02-09T04:52:53.151Z,85.44
2023-02-09T04:55:38.450Z,85.24
2023-02-09T04:58:39.972Z,85.07
2023-02-09T05:01:25.990Z,85.54
2023-02-09T05:04:11.541Z,85.88
2023-02-09T05:06:55.299Z,86.10
2023-02-09T05:09:39.184Z,86.02
2023-02-09T05:12:23.000Z,85.01
2023-02-09T05:15:07.168Z,85.29
2023-02-09T05:17:51.076Z,85.19
2023-02-09T05:20:37.010Z,85.44
2023-02-09T05:23:21.055Z,85.41
2023-02-09T05:26:04.940Z,84.58
2023-02-09T05:28:48.878Z,84.07
2023-02-09T05:31:32.842Z,84.42
2023-02-09T05:34:16.743Z,84.59
2023-02-09T05:37:02.206Z,84.52
2023-02-09T05:39:46.144Z,84.13
2023-02-09T05:42:29.978Z,84.46
2023-02-09T05:45:14.086Z,84.03
2023-02-09T05:47:57.870Z,84.25
2023-02-09T05:50:41.838Z,83.82
2023-02-09T05:53:27.328Z,83.07
2023-02-09T05:56:11.077Z,84.42
2023-02-09T05:58:54.814Z,84.01
2023-02-09T06:01:38.613Z,84.42
2023-02-09T06:04:22.607Z,84.10
2023-02-09T06:07:06.344Z,85.41
2023-02-09T06:09:51.718Z,84.83
2023-02-09T06:12:35.517Z,83.65
2023-02-09T06:15:19.281Z,83.96
2023-02-09T06:18:03.132Z,84.06
2023-02-09T06:20:47.182Z,82.81
2023-02-09T06:23:31.220Z,83.46
2023-02-09T06:26:18.360Z,84.43
2023-02-09T06:29:02.218Z,85.18
2023-02-09T06:31:46.157Z,86.07
2023-02-09T06:34:30.388Z,86.45
2023-02-09T06:37:14.134Z,85.52
2023-02-09T06:39:58.167Z,85.00
2023-02-09T06:42:46.213Z,84.96
2023-02-09T06:45:30.149Z,84.00
2023-02-09T06:48:14.018Z,84.36
2023-02-09T06:50:58.020Z,83.17
2023-02-09T06:53:43.374Z,83.70
2023-02-09T06:56:27.087Z,84.34
2023-02-09T06:59:12.345Z,84.75
2023-02-09T07:01:56.207Z,84.76
2023-02-09T07:04:40.115Z,83.84
2023-02-09T07:07:25.479Z,84.18
2023-02-09T07:10:11.116Z,83.81
2023-02-09T07:12:57.849Z,83.53
2023-02-09T07:15:43.060Z,83.28
2023-02-09T07:18:27.250Z,83.63
2023-02-09T07:21:15.629Z,83.28
2023-02-09T07:23:59.478Z,83.61
2023-02-09T07:26:43.251Z,83.74
2023-02-09T07:29:27.164Z,83.24
2023-02-09T07:32:13.538Z,83.00
2023-02-09T07:34:57.341Z,82.11
2023-02-09T07:37:41.129Z,82.64
2023-02-09T07:40:25.153Z,81.82
2023-02-09T07:43:09.025Z,81.48
2023-02-09T07:45:52.922Z,82.04
2023-02-09T07:48:38.344Z,82.16
2023-02-09T07:51:25.569Z,81.82
2023-02-09T07:54:09.815Z,81.75
2023-02-09T07:56:56.576Z,80.93
2023-02-09T07:59:40.405Z,79.93
2023-02-09T08:02:29.800Z,80.00
2023-02-09T08:05:21.916Z,79.22
2023-02-09T08:08:06.144Z,77.73
2023-02-09T08:10:50.184Z,76.78
2023-02-09T08:13:38.266Z,77.71
2023-02-09T08:16:27.734Z,76.91
2023-02-09T08:19:16.326Z,76.48
2023-02-09T08:22:01.606Z,76.77
2023-02-09T08:24:45.980Z,76.16
2023-02-09T08:27:30.959Z,76.06
2023-02-09T08:30:17.645Z,75.65
2023-02-09T08:33:02.048Z,75.78
2023-02-09T08:35:46.838Z,74.60
2023-02-09T08:38:33.267Z,75.13
2023-02-09T08:41:19.069Z,74.40
2023-02-09T08:44:03.864Z,74.69
2023-02-09T08:46:48.075Z,74.23
2023-02-09T08:49:32.260Z,73.97
2023-02-09T08:52:16.797Z,74.16
2023-02-09T08:55:02.262Z,73.00
2023-02-09T08:57:47.405Z,73.04
2023-02-09T09:00:31.570Z,73.11
2023-02-09T09:03:15.655Z,72.14
2023-02-09T09:06:00.344Z,71.51
2023-02-09T09:08:44.323Z,71.12
2023-02-09T09:11:29.954Z,71.69
2023-02-09T09:14:14.186Z,72.34
2023-02-09T09:16:59.561Z,72.23
2023-02-09T09:19:43.905Z,71.93
2023-02-09T09:22:27.996Z,71.75
2023-02-09T09:25:11.850Z,71.23
2023-02-09T09:27:58.120Z,71.28
2023-02-09T09:30:42.001Z,72.10
2023-02-09T09:33:25.903Z,71.94
2023-02-09T09:36:10.575Z,70.70
2023-02-09T09:38:56.309Z,70.28
2023-02-09T09:41:40.415Z,70.00
2023-02-09T09:44:31.934Z,69.40
2023-02-09T09:47:20.362Z,70.09
2023-02-09T09:50:05.806Z,70.28
2023-02-09T09:52:52.402Z,70.96
2023-02-09T09:55:38.074Z,70.69
2023-02-09T09:58:22.259Z,70.83
2023-02-09T10:01:11.754Z,71.27
2023-02-09T10:03:58.224Z,71.25
2023-02-09T10:06:44.814Z,70.69
2023-02-09T10:09:39.288Z,71.24
2023-02-09T10:12:38.879Z,70.34
2023-02-09T10:15:28.462Z,69.58
2023-02-09T10:18:17.058Z,70.12
2023-02-09T10:21:04.589Z,69.99
2023-02-09T10:23:51.040Z,69.14
2023-02-09T10:26:38.221Z,69.22
2023-02-09T10:29:26.466Z,69.04
2023-02-09T10:32:17.070Z,68.96
2023-02-09T10:35:04.970Z,69.46
2023-02-09T10:37:56.117Z,69.13
2023-02-09T10:40:41.800Z,68.80
2023-02-09T10:43:29.275Z,69.04
2023-02-09T10:46:19.175Z,68.32
2023-02-09T10:49:03.520Z,68.83
2023-02-09T10:51:50.820Z,69.18
2023-02-09T10:54:35.451Z,69.14
2023-02-09T10:57:28.332Z,68.18
2023-02-09T11:00:33.524Z,67.80
2023-02-09T11:03:19.415Z,69.27
2023-02-09T11:06:09.671Z,67.07
2023-02-09T11:09:01.069Z,66.90
2023-02-09T11:11:46.252Z,67.02
2023-02-09T11:14:30.338Z,65.95
2023-02-09T11:17:18.345Z,66.47
2023-02-09T11:20:21.648Z,65.40
2023-02-09T11:23:32.090Z,66.50
2023-02-09T11:26:29.737Z,66.25
2023-02-09T11:29:24.775Z,66.77
2023-02-09T11:32:20.848Z,67.33
2023-02-09T11:35:10.988Z,67.70
2023-02-09T11:38:00.907Z,67.93
2023-02-09T11:40:49.263Z,67.25
2023-02-09T11:43:40.791Z,67.81
2023-02-09T11:46:26.741Z,67.29
2023-02-09T11:49:19.348Z,67.07
2023-02-09T11:52:05.161Z,66.47
2023-02-09T11:54:54.291Z,65.99
2023-02-09T11:57:46.399Z,65.33
2023-02-09T12:00:55.978Z,64.88
2023-02-09T12:03:44.270Z,65.63
2023-02-09T12:06:39.783Z,64.92
2023-02-09T12:09:34.717Z,65.61
2023-02-09T12:12:27.216Z,64.73
2023-02-09T12:15:17.368Z,65.27
2023-02-09T12:18:05.765Z,65.52
2023-02-09T12:20:55.801Z,65.37
2023-02-09T12:23:40.743Z,66.07
2023-02-09T12:26:37.534Z,65.39
2023-02-09T12:29:36.898Z,66.49
2023-02-09T12:32:45.581Z,65.77
2023-02-09T12:35:39.943Z,65.25
2023-02-09T12:38:23.759Z,64.07
2023-02-09T12:41:09.086Z,64.37
2023-02-09T12:44:26.928Z,64.55
2023-02-09T12:47:45.062Z,65.19
2023-02-09T12:50:45.813Z,64.09
2023-02-09T12:53:50.643Z,64.89
2023-02-09T12:56:35.353Z,64.31
2023-02-09T12:59:21.255Z,63.69
2023-02-09T13:02:16.922Z,63.60
2023-02-09T13:05:05.341Z,63.16
2023-02-09T13:07:57.219Z,63.05
2023-02-09T13:10:45.675Z,63.71
2023-02-09T13:13:36.311Z,63.33
2023-02-09T13:16:47.983Z,64.28
2023-02-09T13:19:53.982Z,63.44
2023-02-09T13:22:52.015Z,63.06
2023-02-09T13:25:40.425Z,63.60
2023-02-09T13:28:26.613Z,63.28
2023-02-09T13:31:36.675Z,63.66
2023-02-09T13:34:30.025Z,64.14
2023-02-09T13:37:25.885Z,64.55
2023-02-09T13:40:17.928Z,64.20
2023-02-09T13:43:07.839Z,63.66
2023-02-09T13:45:53.897Z,63.77
2023-02-09T13:48:39.639Z,64.57
2023-02-09T13:51:24.782Z,63.54
2023-02-09T13:54:08.648Z,65.16
2023-02-09T13:56:52.532Z,65.14
2023-02-09T13:59:41.330Z,64.60
2023-02-09T14:02:27.977Z,64.87
2023-02-09T14:05:12.013Z,66.17
2023-02-09T14:07:56.970Z,65.49
2023-02-09T14:10:44.596Z,65.62
2023-02-09T14:13:33.487Z,65.65
2023-02-09T14:16:20.576Z,66.01
2023-02-09T14:19:23.229Z,65.90
2023-02-09T14:22:07.189Z,66.11
2023-02-09T14:24:50.976Z,64.60
2023-02-09T14:27:36.366Z,65.63
2023-02-09T14:30:23.515Z,64.82
2023-02-09T14:33:24.583Z,65.14
2023-02-09T14:36:23.330Z,65.50
2023-02-09T14:39:16.758Z,64.46
2023-02-09T14:42:13.765Z,65.32
2023-02-09T14:44:58.969Z,65.21
2023-02-09T14:47:44.385Z,65.30
2023-02-09T14:50:29.923Z,64.92
2023-02-09T14:53:16.002Z,65.85
2023-02-09T14:56:00.325Z,65.49
2023-02-09T14:58:44.006Z,64.96
2023-02-09T15:01:27.970Z,65.53
2023-02-09T15:04:11.836Z,64.55
2023-02-09T15:07:03.122Z,65.23
2023-02-09T15:09:47.499Z,65.45
2023-02-09T15:12:31.424Z,65.40
2023-02-09T15:15:17.652Z,65.41
2023-02-09T15:18:02.224Z,65.74
2023-02-09T15:20:46.067Z,64.62
2023-02-09T15:23:31.414Z,65.43
2023-02-09T15:26:17.664Z,65.22
2023-02-09T15:29:01.658Z,65.22
2023-02-09T15:31:45.823Z,65.66
2023-02-09T15:34:29.766Z,65.71
2023-02-09T15:37:21.796Z,66.04
2023-02-09T15:40:39.072Z,66.24
2023-02-09T15:43:42.198Z,66.33
2023-02-09T15:46:43.899Z,66.67
2023-02-09T15:49:27.839Z,66.41
2023-02-09T15:52:11.790Z,66.65
2023-02-09T15:54:55.682Z,66.31
2023-02-09T15:57:40.802Z,66.51
2023-02-09T16:00:27.552Z,65.40
2023-02-09T16:03:16.094Z,65.71
2023-02-09T16:06:02.127Z,65.59
2023-02-09T16:08:47.012Z,65.79
2023-02-09T16:11:34.820Z,65.37
2023-02-09T16:14:22.975Z,65.41
2023-02-09T16:17:07.956Z,65.35
2023-02-09T16:19:51.790Z,65.10
2023-02-09T16:22:35.618Z,65.58
2023-02-09T16:25:21.739Z,65.71
2023-02-09T16:28:05.669Z,65.58
2023-02-09T16:30:53.219Z,66.55
2023-02-09T16:33:38.829Z,65.77
2023-02-09T16:36:25.697Z,65.32
2023-02-09T16:39:17.385Z,65.81
2023-02-09T16:42:01.196Z,66.56
2023-02-09T16:44:45.006Z,66.55
2023-02-09T16:47:32.701Z,66.66
2023-02-09T16:50:24.114Z,67.34
2023-02-09T16:53:20.313Z,67.18
2023-02-09T16:56:06.900Z,67.28
2023-02-09T16:58:51.038Z,67.08
2023-02-09T17:01:35.008Z,67.83
2023-02-09T17:04:20.693Z,68.14
2023-02-09T17:07:04.765Z,68.30
2023-02-09T17:09:48.873Z,67.25
2023-02-09T17:12:33.066Z,68.57
2023-02-09T17:15:29.540Z,68.32
2023-02-09T17:18:18.770Z,68.20
2023-02-09T17:21:08.309Z,68.55
2023-02-09T17:23:53.300Z,68.55
2023-02-09T17:26:37.906Z,69.05
2023-02-09T17:29:22.249Z,69.06
2023-02-09T17:32:06.760Z,68.60
2023-02-09T17:34:50.790Z,68.90
2023-02-09T17:37:37.561Z,69.04
2023-02-09T17:40:23.798Z,69.02
2023-02-09T17:43:07.881Z,68.92
2023-02-09T17:45:52.082Z,68.62
2023-02-09T17:48:36.207Z,68.79
2023-02-09T17:51:22.272Z,68.98
2023-02-09T17:54:13.509Z,69.20
2023-02-09T17:56:57.380Z,68.22
2023-02-09T17:59:41.385Z,68.77
2023-02-09T18:02:25.372Z,68.24
2023-02-09T18:05:10.013Z,69.07
2023-02-09T18:07:54.910Z,68.70
2023-02-09T18:10:40.441Z,69.32
2023-02-09T18:13:25.925Z,70.52
2023-02-09T18:16:10.780Z,70.27
2023-02-09T18:18:54.732Z,70.39
2023-02-09T18:21:38.992Z,70.80
2023-02-09T18:24:24.884Z,70.78
2023-02-09T18:27:13.490Z,70.54
2023-02-09T18:29:57.385Z,71.04
2023-02-09T18:32:41.365Z,70.58
2023-02-09T18:35:27.111Z,70.66
2023-02-09T18:38:12.906Z,71.00
2023-02-09T18:40:56.640Z,70.94
2023-02-09T18:43:41.784Z,70.67
2023-02-09T18:46:27.208Z,70.69
2023-02-09T18:49:13.569Z,70.98
2023-02-09T18:51:59.449Z,70.72
2023-02-09T18:54:43.452Z,69.83
2023-02-09T18:57:27.227Z,70.13
2023-02-09T19:00:15.620Z,70.16
2023-02-09T19:03:00.066Z,69.93
2023-02-09T19:05:44.036Z,70.49
2023-02-09T19:08:27.852Z,70.73
2023-02-09T19:11:14.336Z,70.63
2023-02-09T19:14:15.728Z,70.95
2023-02-09T19:17:01.035Z,71.95
2023-02-09T19:19:45.968Z,71.09
2023-02-09T19:22:29.944Z,70.93
2023-02-09T19:25:13.718Z,71.70
2023-02-09T19:27:57.616Z,71.47
2023-02-09T19:30:42.891Z,71.42
2023-02-09T19:33:28.184Z,70.92
2023-02-09T19:36:12.074Z,71.73
2023-02-09T19:38:56.732Z,71.45
2023-02-09T19:41:40.651Z,72.07
2023-02-09T19:44:24.415Z,72.21
2023-02-09T19:47:08.641Z,71.64
2023-02-09T19:49:54.501Z,72.09
2023-02-09T19:52:40.762Z,71.91
2023-02-09T19:55:24.610Z,72.01
2023-02-09T19:58:08.446Z,72.03
2023-02-09T20:00:53.503Z,72.13
2023-02-09T20:03:37.729Z,72.54
2023-02-09T20:06:23.057Z,72.31
2023-02-09T20:09:06.859Z,72.68
2023-02-09T20:11:50.837Z,72.26
2023-02-09T20:14:34.736Z,72.37
2023-02-09T20:20:03.156Z,71.47
2023-02-09T20:22:51.491Z,72.50
2023-02-09T20:25:35.452Z,71.90
2023-02-09T20:28:21.292Z,72.41
2023-02-09T20:31:10.450Z,73.29
2023-02-09T20:33:59.419Z,72.41
2023-02-09T20:36:46.249Z,72.71
2023-02-09T20:39:34.099Z,73.01
2023-02-09T20:42:38.699Z,73.67
2023-02-09T20:45:39.922Z,73.16
2023-02-09T20:48:23.842Z,73.28
2023-02-09T20:51:07.796Z,73.71
2023-02-09T20:53:53.217Z,73.54
2023-02-09T20:56:38.447Z,72.91
2023-02-09T20:59:22.369Z,72.55
2023-02-09T21:02:06.302Z,73.54
2023-02-09T21:04:50.101Z,74.28
2023-02-09T21:07:34.102Z,73.26
2023-02-09T21:10:17.985Z,73.68
2023-02-09T21:13:03.440Z,74.29
2023-02-09T21:15:47.239Z,74.29
2023-02-09T21:18:31.080Z,74.15
2023-02-09T21:21:17.475Z,74.55
2023-02-09T21:24:01.367Z,74.81
2023-02-09T21:26:45.326Z,74.43
2023-02-09T21:29:30.913Z,74.33
2023-02-09T21:32:14.788Z,74.05
2023-02-09T21:34:58.660Z,74.71
2023-02-09T21:37:43.017Z,74.55
2023-02-09T21:40:26.916Z,73.76
2023-02-09T21:43:10.891Z,74.80
2023-02-09T21:45:56.478Z,74.17
2023-02-09T21:48:40.335Z,73.93
2023-02-09T21:51:24.372Z,75.14
2023-02-09T21:54:08.228Z,75.35
2023-02-09T21:56:52.012Z,75.36
2023-02-09T21:59:35.749Z,75.12
2023-02-09T22:02:21.592Z,74.78
2023-02-09T22:05:06.112Z,74.60
2023-02-09T22:07:50.457Z,74.88
2023-02-09T22:10:34.550Z,74.75
2023-02-09T22:13:18.920Z,75.65
2023-02-09T22:16:07.950Z,75.94
2023-02-09T22:18:53.424Z,75.47
2023-02-09T22:21:37.224Z,75.29
2023-02-09T22:24:21.224Z,75.00
2023-02-09T22:27:05.421Z,74.77
2023-02-09T22:29:49.218Z,74.83
2023-02-09T22:32:33.072Z,75.22
2023-02-09T22:35:18.532Z,75.18
2023-02-09T22:38:02.379Z,75.71
2023-02-09T22:40:46.299Z,76.00
2023-02-09T22:43:30.458Z,76.24
2023-02-09T22:46:14.489Z,76.05
2023-02-09T22:49:00.579Z,76.49
2023-02-09T22:51:47.170Z,76.44
2023-02-09T22:54:31.012Z,75.92
2023-02-09T22:57:14.879Z,76.49
2023-02-09T22:59:58.706Z,76.59
2023-02-09T23:02:42.620Z,75.93
2023-02-09T23:05:26.380Z,76.37
2023-02-09T23:08:11.603Z,76.23
2023-02-09T23:10:55.377Z,75.89
2023-02-09T23:13:39.694Z,75.35
2023-02-09T23:16:26.472Z,75.59
2023-02-09T23:19:13.729Z,76.10
2023-02-09T23:21:57.637Z,75.93
2023-02-09T23:24:42.973Z,76.14
2023-02-09T23:27:26.906Z,75.69
2023-02-09T23:30:12.057Z,75.95
2023-02-09T23:32:55.876Z,75.69
2023-02-09T23:35:40.045Z,76.29
2023-02-09T23:38:23.810Z,76.12
2023-02-09T23:41:10.317Z,76.27
2023-02-09T23:43:55.040Z,76.13
2023-02-09T23:46:39.092Z,76.15
2023-02-09T23:49:23.780Z,77.02
2023-02-09T23:52:07.681Z,77.17
2023-02-09T23:54:51.540Z,77.83
2023-02-09T23:57:36.899Z,78.03
